createdAt,value
2023-05-01T00:02:58.431Z,4.89
2023-05-01T00:07:57.411Z,4.77
2023-05-01T00:12:56.363Z,4.78
2023-05-01T00:17:55.243Z,5.37
2023-05-01T00:22:54.192Z,5.17
2023-05-01T00:27:52.963Z,5.06
2023-05-01T00:32:51.740Z,4.64
2023-05-01T00:37:50.923Z,4.71
2023-05-01T00:42:49.851Z,4.38
2023-05-01T00:47:48.738Z,4.86
2023-05-01T00:52:47.636Z,4.48
2023-05-01T00:57:46.990Z,4.19
2023-05-01T01:02:46.870Z,4.59
2023-05-01T01:08:05.525Z,4.33
2023-05-01T01:13:44.959Z,4.93
2023-05-01T01:18:50.739Z,4.82
2023-05-01T01:24:17.013Z,4.37
2023-05-01T01:29:37.691Z,4.31
2023-05-01T01:34:55.385Z,3.72
2023-05-01T01:40:09.463Z,3.60
2023-05-01T01:45:19.288Z,4.01
2023-05-01T01:50:21.366Z,3.51
2023-05-01T01:55:25.219Z,3.52
2023-05-01T02:00:24.454Z,3.87
2023-05-01T02:05:25.668Z,3.44
2023-05-01T02:10:25.773Z,3.95
2023-05-01T02:15:26.960Z,3.66
2023-05-01T02:20:26.134Z,3.17
2023-05-01T02:25:29.482Z,2.88
2023-05-01T02:30:28.538Z,3.48
2023-05-01T02:35:27.355Z,3.85
2023-05-01T02:40:27.122Z,3.22
2023-05-01T02:45:27.498Z,2.97
2023-05-01T02:50:27.433Z,2.96
2023-05-01T02:55:27.235Z,3.21
2023-05-01T03:00:26.968Z,2.99
2023-05-01T03:05:25.993Z,3.68
2023-05-01T03:10:25.000Z,3.26
2023-05-01T03:15:23.855Z,2.88
2023-05-01T03:20:22.839Z,2.77
2023-05-01T03:25:21.771Z,3.78
2023-05-01T03:30:20.830Z,3.19
2023-05-01T03:35:20.071Z,2.61
2023-05-01T03:40:19.507Z,2.91
2023-05-01T03:45:37.028Z,3.26
2023-05-01T03:50:36.134Z,2.45
2023-05-01T03:55:35.131Z,2.46
2023-05-01T04:00:35.107Z,2.68
2023-05-01T04:05:34.225Z,2.73
2023-05-01T04:10:34.903Z,3.19
2023-05-01T04:15:36.663Z,3.79
2023-05-01T04:20:35.811Z,3.85
2023-05-01T04:25:34.593Z,4.22
2023-05-01T04:30:39.466Z,4.57
2023-05-01T04:35:39.370Z,4.60
2023-05-01T04:40:38.590Z,4.75
2023-05-01T04:45:40.666Z,5.22
2023-05-01T04:50:39.490Z,5.57
2023-05-01T04:55:38.831Z,5.45
2023-05-01T05:00:45.817Z,5.46
2023-05-01T05:05:51.579Z,6.26
2023-05-01T05:10:56.007Z,6.18
2023-05-01T05:16:01.904Z,6.59
2023-05-01T05:21:05.066Z,6.30
2023-05-01T05:26:04.252Z,6.90
2023-05-01T05:31:03.454Z,6.92
2023-05-01T05:36:03.331Z,7.33
2023-05-01T05:41:08.051Z,7.47
2023-05-01T05:46:07.396Z,7.83
2023-05-01T05:51:08.072Z,8.11
2023-05-01T05:56:07.342Z,8.43
2023-05-01T06:01:07.154Z,8.43
2023-05-01T06:06:07.908Z,8.85
2023-05-01T06:11:09.202Z,9.11
2023-05-01T06:16:10.104Z,9.38
2023-05-01T06:21:08.996Z,9.42
2023-05-01T06:26:08.604Z,9.76
2023-05-01T06:31:07.698Z,9.94
2023-05-01T06:36:12.399Z,10.18
2023-05-01T06:41:11.330Z,10.41
2023-05-01T06:46:10.495Z,10.61
2023-05-01T06:51:09.450Z,11.19
2023-05-01T06:56:08.884Z,11.95
2023-05-01T07:01:07.847Z,13.45
2023-05-01T07:06:06.749Z,14.02
2023-05-01T07:11:05.831Z,14.48
2023-05-01T07:16:04.934Z,14.46
2023-05-01T07:21:03.951Z,14.70
2023-05-01T07:26:02.759Z,14.77
2023-05-01T07:31:01.795Z,14.89
2023-05-01T07:36:00.713Z,14.27
2023-05-01T07:40:59.854Z,14.50
2023-05-01T07:46:08.401Z,14.44
2023-05-01T07:51:09.559Z,14.64
2023-05-01T07:56:10.027Z,14.53
2023-05-01T08:01:09.243Z,14.92
2023-05-01T08:06:08.502Z,15.09
2023-05-01T08:11:09.327Z,15.32
2023-05-01T08:16:08.296Z,15.46
2023-05-01T08:21:07.240Z,15.32
2023-05-01T08:26:06.319Z,14.88
2023-05-01T08:31:05.578Z,15.24
2023-05-01T08:36:04.651Z,16.02
2023-05-01T08:41:04.106Z,16.55
2023-05-01T08:46:09.589Z,16.40
2023-05-01T08:51:10.519Z,16.72
2023-05-01T08:56:13.848Z,16.68
2023-05-01T09:01:16.176Z,16.71
2023-05-01T09:06:15.747Z,16.74
2023-05-01T09:11:16.739Z,16.83
2023-05-01T09:16:15.548Z,16.56
2023-05-01T09:21:14.682Z,16.82
2023-05-01T09:26:16.004Z,16.81
2023-05-01T09:31:24.002Z,16.96
2023-05-01T09:36:33.823Z,17.16
2023-05-01T09:41:33.557Z,17.13
2023-05-01T09:46:42.242Z,16.99
2023-05-01T09:51:40.904Z,17.39
2023-05-01T09:56:49.766Z,17.79
2023-05-01T10:01:50.436Z,17.71
2023-05-01T10:06:50.109Z,17.84
2023-05-01T10:11:54.644Z,17.85
2023-05-01T10:16:54.040Z,17.58
2023-05-01T10:21:53.508Z,18.25
2023-05-01T10:26:53.741Z,18.40
2023-05-01T10:31:52.592Z,18.13
2023-05-01T10:37:01.588Z,18.09
2023-05-01T10:42:03.819Z,18.38
2023-05-01T10:47:24.626Z,18.65
2023-05-01T10:52:24.123Z,18.83
2023-05-01T10:57:43.869Z,19.11
2023-05-01T11:02:43.112Z,18.96
2023-05-01T11:07:42.146Z,18.77
2023-05-01T11:12:47.041Z,18.76
2023-05-01T11:17:46.183Z,19.14
2023-05-01T11:22:47.361Z,19.40
2023-05-01T11:27:51.004Z,19.86
2023-05-01T11:32:51.353Z,19.55
2023-05-01T11:37:57.033Z,19.64
2023-05-01T11:43:06.076Z,20.10
2023-05-01T11:48:05.680Z,20.25
2023-05-01T11:53:13.005Z,19.95
2023-05-01T11:58:12.627Z,19.96
2023-05-01T12:03:14.043Z,20.04
2023-05-01T12:08:20.789Z,20.56
2023-05-01T12:13:20.796Z,20.49
2023-05-01T12:18:21.612Z,20.42
2023-05-01T12:23:32.148Z,20.28
2023-05-01T12:28:31.261Z,20.42
2023-05-01T12:33:30.285Z,20.17
2023-05-01T12:38:29.332Z,19.94
2023-05-01T12:43:37.173Z,20.01
2023-05-01T12:48:39.230Z,20.42
2023-05-01T12:53:44.283Z,20.83
2023-05-01T12:58:43.250Z,20.86
2023-05-01T13:03:43.950Z,21.11
2023-05-01T13:08:43.030Z,20.88
2023-05-01T13:13:44.013Z,20.79
2023-05-01T13:18:47.128Z,20.47
2023-05-01T13:23:57.460Z,20.56
2023-05-01T13:28:57.381Z,20.69
2023-05-01T13:33:59.179Z,20.71
2023-05-01T13:38:58.042Z,21.11
2023-05-01T13:43:57.452Z,21.39
2023-05-01T13:49:03.506Z,20.99
2023-05-01T13:54:03.466Z,20.77
2023-05-01T13:59:02.318Z,21.05
2023-05-01T14:04:01.487Z,20.86
2023-05-01T14:09:00.521Z,20.78
2023-05-01T14:14:00.420Z,20.89
2023-05-01T14:19:01.409Z,21.12
2023-05-01T14:24:01.523Z,21.08
2023-05-01T14:29:03.899Z,20.98
2023-05-01T14:34:04.393Z,21.05
2023-05-01T14:39:04.124Z,20.76
2023-05-01T14:44:04.855Z,20.06
2023-05-01T14:49:03.656Z,20.04
2023-05-01T14:54:02.500Z,19.97
2023-05-01T14:59:01.451Z,20.04
2023-05-01T15:04:03.235Z,19.77
2023-05-01T15:09:05.380Z,19.62
2023-05-01T15:14:04.291Z,19.77
2023-05-01T15:19:03.156Z,19.57
2023-05-01T15:24:02.060Z,19.50
2023-05-01T15:29:00.832Z,19.50
2023-05-01T15:33:59.634Z,19.59
2023-05-01T15:38:58.413Z,19.54
2023-05-01T15:43:57.308Z,19.54
2023-05-01T15:48:56.275Z,19.70
2023-05-01T15:53:55.300Z,19.44
2023-05-01T15:58:54.386Z,19.46
2023-05-01T16:03:53.293Z,19.46
2023-05-01T16:08:53.060Z,19.53
2023-05-01T16:13:54.062Z,19.55
2023-05-01T16:18:55.796Z,19.12
2023-05-01T16:23:57.062Z,19.19
2023-05-01T16:28:59.753Z,18.88
2023-05-01T16:33:58.531Z,19.12
2023-05-01T16:38:57.339Z,18.99
2023-05-01T16:43:59.908Z,19.03
2023-05-01T16:49:01.482Z,18.86
2023-05-01T16:54:00.455Z,18.60
2023-05-01T16:58:59.548Z,18.58
2023-05-01T17:03:58.404Z,18.45
2023-05-01T17:08:57.143Z,18.43
2023-05-01T17:13:56.072Z,18.34
2023-05-01T17:18:55.258Z,18.21
2023-05-01T17:23:54.944Z,18.16
2023-05-01T17:28:53.844Z,18.09
2023-05-01T17:33:52.541Z,17.89
2023-05-01T17:38:51.438Z,17.71
2023-05-01T17:43:50.287Z,17.60
2023-05-01T17:48:49.154Z,17.50
2023-05-01T17:53:48.411Z,17.35
2023-05-01T17:58:47.338Z,17.37
2023-05-01T18:03:46.565Z,17.17
2023-05-01T18:08:45.723Z,17.09
2023-05-01T18:13:47.960Z,16.97
2023-05-01T18:18:48.214Z,16.84
2023-05-01T18:23:48.554Z,16.71
2023-05-01T18:28:47.836Z,16.56
2023-05-01T18:33:47.195Z,16.28
2023-05-01T18:38:46.117Z,16.40
2023-05-01T18:43:45.088Z,16.04
2023-05-01T18:48:43.894Z,16.23
2023-05-01T18:53:42.720Z,16.16
2023-05-01T18:58:41.434Z,15.98
2023-05-01T19:03:40.594Z,16.11
2023-05-01T19:08:39.514Z,15.94
2023-05-01T19:13:38.338Z,15.37
2023-05-01T19:18:38.397Z,15.61
2023-05-01T19:23:37.602Z,15.57
2023-05-01T19:28:38.458Z,15.57
2023-05-01T19:33:38.265Z,15.51
2023-05-01T19:38:37.108Z,15.47
2023-05-01T19:43:36.279Z,15.42
2023-05-01T19:48:35.099Z,15.19
2023-05-01T19:53:33.922Z,15.08
2023-05-01T19:58:32.769Z,15.19
2023-05-01T20:03:31.728Z,15.17
2023-05-01T20:08:30.644Z,15.19
2023-05-01T20:13:29.652Z,15.36
2023-05-01T20:18:28.784Z,14.76
2023-05-01T20:23:27.682Z,15.11
2023-05-01T20:28:27.249Z,14.91
2023-05-01T20:33:26.055Z,15.15
2023-05-01T20:38:27.032Z,14.93
2023-05-01T20:43:26.802Z,14.72
2023-05-01T20:48:25.930Z,14.49
2023-05-01T20:53:24.780Z,14.64
2023-05-01T20:58:23.613Z,14.61
2023-05-01T21:03:23.821Z,14.78
2023-05-01T21:08:22.734Z,14.85
2023-05-01T21:13:22.755Z,15.05
2023-05-01T21:18:21.811Z,15.02
2023-05-01T21:23:20.600Z,15.10
2023-05-01T21:28:19.476Z,14.87
2023-05-01T21:33:18.727Z,14.88
2023-05-01T21:38:17.655Z,14.88
2023-05-01T21:43:18.801Z,14.74
2023-05-01T21:48:19.978Z,14.67
2023-05-01T21:53:18.937Z,14.39
2023-05-01T21:58:17.692Z,14.51
2023-05-01T22:03:18.219Z,14.46
2023-05-01T22:08:17.168Z,14.41
2023-05-01T22:13:16.353Z,14.48
2023-05-01T22:18:19.526Z,14.33
2023-05-01T22:23:18.372Z,14.32
2023-05-01T22:28:17.982Z,14.29
2023-05-01T22:33:17.171Z,14.11
2023-05-01T22:38:15.980Z,14.13
2023-05-01T22:43:14.798Z,14.17
2023-05-01T22:48:13.912Z,14.14
2023-05-01T22:53:13.087Z,14.18
2023-05-01T22:58:11.996Z,13.92
2023-05-01T23:03:11.861Z,14.06
2023-05-01T23:08:10.938Z,13.97
2023-05-01T23:13:19.498Z,13.78
2023-05-01T23:18:23.931Z,13.87
2023-05-01T23:23:22.870Z,13.64
2023-05-01T23:28:24.520Z,13.92
2023-05-01T23:33:34.522Z,13.96
2023-05-01T23:38:33.350Z,14.06
2023-05-01T23:43:33.455Z,14.12
2023-05-01T23:48:33.605Z,13.80
2023-05-01T23:53:32.432Z,14.07
2023-05-01T23:58:31.299Z,13.85
